createdAt,value
2023-05-01T00:01:48.550Z,7.30
2023-05-01T00:03:52.304Z,7.20
2023-05-01T00:06:01.912Z,7.20
2023-05-01T00:08:05.386Z,7.30
2023-05-01T00:10:09.588Z,7.20
2023-05-01T00:12:13.610Z,7.20
2023-05-01T00:14:17.070Z,7.20
2023-05-01T00:16:20.492Z,7.10
2023-05-01T00:18:25.377Z,7.20
2023-05-01T00:20:29.587Z,7.10
2023-05-01T00:22:33.179Z,7.10
2023-05-01T00:24:36.800Z,7.00
2023-05-01T00:26:40.173Z,7.00
2023-05-01T00:28:43.816Z,6.90
2023-05-01T00:30:47.259Z,7.00
2023-05-01T00:32:50.788Z,6.90
2023-05-01T00:34:57.725Z,7.00
2023-05-01T00:37:01.026Z,6.90
2023-05-01T00:39:04.802Z,6.90
2023-05-01T00:41:08.222Z,6.90
2023-05-01T00:43:12.825Z,6.90
2023-05-01T00:45:16.542Z,6.80
2023-05-01T00:47:20.055Z,6.90
2023-05-01T00:49:23.325Z,6.90
2023-05-01T00:51:30.608Z,6.80
2023-05-01T00:53:35.407Z,6.90
2023-05-01T00:55:40.505Z,7.00
2023-05-01T00:57:43.967Z,6.90
2023-05-01T00:59:47.546Z,6.90
2023-05-01T01:01:53.273Z,6.80
2023-05-01T01:03:58.338Z,6.90
2023-05-01T01:06:09.823Z,6.80
2023-05-01T01:08:22.049Z,6.80
2023-05-01T01:10:32.000Z,6.90
2023-05-01T01:12:45.405Z,7.00
2023-05-01T01:14:56.796Z,6.90
2023-05-01T01:17:06.084Z,6.90
2023-05-01T01:19:37.452Z,7.00
2023-05-01T01:21:45.529Z,7.00
2023-05-01T01:24:30.197Z,7.10
2023-05-01T01:26:53.727Z,7.00
2023-05-01T01:29:21.732Z,7.00
2023-05-01T01:31:35.284Z,7.00
2023-05-01T01:34:02.560Z,7.00
2023-05-01T01:36:12.587Z,7.10
2023-05-01T01:38:22.716Z,7.00
2023-05-01T01:40:31.130Z,7.10
2023-05-01T01:42:40.145Z,6.90
2023-05-01T01:44:49.364Z,7.00
2023-05-01T01:46:55.785Z,6.90
2023-05-01T01:49:02.218Z,6.90
2023-05-01T01:51:11.556Z,6.90
2023-05-01T01:53:18.617Z,6.90
2023-05-01T01:55:30.536Z,7.00
2023-05-01T01:57:34.824Z,7.00
2023-05-01T01:59:38.165Z,6.80
2023-05-01T02:01:43.128Z,6.90
2023-05-01T02:03:48.460Z,6.90
2023-05-01T02:05:55.951Z,6.80
2023-05-01T02:08:00.375Z,6.90
2023-05-01T02:10:05.705Z,6.90
2023-05-01T02:12:10.261Z,7.00
2023-05-01T02:14:15.391Z,6.70
2023-05-01T02:16:20.531Z,6.70
2023-05-01T02:18:24.642Z,6.80
2023-05-01T02:20:29.152Z,6.80
2023-05-01T02:22:34.505Z,6.70
2023-05-01T02:24:39.517Z,6.70
2023-05-01T02:26:45.628Z,6.80
2023-05-01T02:28:48.936Z,6.70
2023-05-01T02:30:52.745Z,6.60
2023-05-01T02:32:56.340Z,6.70
2023-05-01T02:35:00.146Z,6.60
2023-05-01T02:37:04.085Z,6.70
2023-05-01T02:39:08.868Z,6.60
2023-05-01T02:41:13.710Z,6.60
2023-05-01T02:43:21.482Z,6.60
2023-05-01T02:45:26.958Z,6.40
2023-05-01T02:47:33.926Z,6.40
2023-05-01T02:49:39.349Z,6.50
2023-05-01T02:51:43.794Z,6.60
2023-05-01T02:53:48.521Z,6.60
2023-05-01T02:55:54.176Z,6.70
2023-05-01T02:58:00.539Z,6.60
2023-05-01T03:00:04.531Z,6.60
2023-05-01T03:02:08.106Z,6.60
2023-05-01T03:04:11.840Z,6.60
2023-05-01T03:06:15.547Z,6.60
2023-05-01T03:08:18.914Z,6.70
2023-05-01T03:10:22.431Z,6.60
2023-05-01T03:12:27.263Z,6.60
2023-05-01T03:14:30.706Z,6.60
2023-05-01T03:16:34.309Z,6.60
2023-05-01T03:18:37.725Z,6.50
2023-05-01T03:20:41.188Z,6.40
2023-05-01T03:22:44.746Z,6.40
2023-05-01T03:24:48.376Z,6.60
2023-05-01T03:26:52.010Z,6.70
2023-05-01T03:28:56.840Z,6.90
2023-05-01T03:31:00.130Z,6.90
2023-05-01T03:33:03.544Z,6.90
2023-05-01T03:35:07.992Z,6.90
2023-05-01T03:37:12.209Z,7.00
2023-05-01T03:39:15.672Z,7.10
2023-05-01T03:41:19.410Z,7.10
2023-05-01T03:43:23.969Z,7.20
2023-05-01T03:45:29.248Z,7.20
2023-05-01T03:47:32.678Z,7.30
2023-05-01T03:49:36.239Z,7.40
2023-05-01T03:51:39.629Z,7.30
2023-05-01T03:53:42.997Z,7.50
2023-05-01T03:55:46.780Z,7.30
2023-05-01T03:57:50.176Z,7.40
2023-05-01T03:59:54.924Z,7.40
2023-05-01T04:02:00.252Z,7.40
2023-05-01T04:04:04.196Z,7.40
2023-05-01T04:06:07.871Z,7.80
2023-05-01T04:08:11.536Z,7.90
2023-05-01T04:10:15.130Z,7.90
2023-05-01T04:12:18.530Z,8.20
2023-05-01T04:14:22.109Z,8.20
2023-05-01T04:16:25.982Z,8.40
2023-05-01T04:18:30.969Z,8.50
2023-05-01T04:20:34.461Z,8.60
2023-05-01T04:22:38.268Z,8.50
2023-05-01T04:24:41.613Z,8.50
2023-05-01T04:26:45.145Z,8.70
2023-05-01T04:28:48.441Z,8.60
2023-05-01T04:30:52.025Z,8.60
2023-05-01T04:32:55.409Z,8.70
2023-05-01T04:35:00.269Z,8.60
2023-05-01T04:37:03.909Z,8.70
2023-05-01T04:39:07.539Z,8.90
2023-05-01T04:41:10.872Z,9.00
2023-05-01T04:43:14.735Z,9.30
2023-05-01T04:45:18.227Z,9.30
2023-05-01T04:47:21.521Z,9.50
2023-05-01T04:49:24.906Z,9.60
2023-05-01T04:51:30.312Z,9.70
2023-05-01T04:53:33.571Z,9.70
2023-05-01T04:55:37.543Z,9.70
2023-05-01T04:57:40.866Z,9.90
2023-05-01T04:59:44.537Z,10.00
2023-05-01T05:01:48.303Z,10.00
2023-05-01T05:03:51.844Z,10.10
2023-05-01T05:05:55.611Z,10.30
2023-05-01T05:08:00.409Z,10.40
2023-05-01T05:10:03.798Z,10.20
2023-05-01T05:12:07.429Z,10.00
2023-05-01T05:14:12.034Z,9.90
2023-05-01T05:16:15.683Z,10.10
2023-05-01T05:18:19.251Z,10.10
2023-05-01T05:20:22.523Z,10.20
2023-05-01T05:22:26.596Z,10.20
2023-05-01T05:24:31.425Z,10.40
2023-05-01T05:26:34.757Z,10.60
2023-05-01T05:28:38.082Z,10.80
2023-05-01T05:30:41.719Z,10.90
2023-05-01T05:32:45.259Z,10.90
2023-05-01T05:34:49.160Z,10.90
2023-05-01T05:36:52.431Z,10.90
2023-05-01T05:38:55.922Z,10.90
2023-05-01T05:41:01.086Z,10.80
2023-05-01T05:43:05.153Z,10.90
2023-05-01T05:45:09.853Z,10.90
2023-05-01T05:47:13.137Z,10.90
2023-05-01T05:49:16.441Z,10.80
2023-05-01T05:51:19.719Z,10.90
2023-05-01T05:53:25.526Z,11.10
2023-05-01T05:55:29.448Z,11.10
2023-05-01T05:57:36.051Z,11.30
2023-05-01T05:59:39.370Z,11.30
2023-05-01T06:01:42.951Z,11.50
2023-05-01T06:03:46.473Z,11.70
2023-05-01T06:05:50.544Z,12.00
2023-05-01T06:07:54.903Z,12.20
2023-05-01T06:10:01.903Z,12.50
2023-05-01T06:12:05.805Z,12.80
2023-05-01T06:14:10.959Z,13.10
2023-05-01T06:16:15.408Z,13.50
2023-05-01T06:18:19.038Z,13.80
2023-05-01T06:20:22.570Z,13.60
2023-05-01T06:22:26.040Z,14.00
2023-05-01T06:24:29.434Z,14.60
2023-05-01T06:26:32.987Z,15.20
2023-05-01T06:28:36.523Z,15.50
2023-05-01T06:30:41.320Z,15.80
2023-05-01T06:32:44.869Z,16.10
2023-05-01T06:34:48.541Z,16.70
2023-05-01T06:36:52.055Z,17.40
2023-05-01T06:38:55.531Z,17.90
2023-05-01T06:40:58.952Z,18.50
2023-05-01T06:43:02.419Z,19.20
2023-05-01T06:45:06.718Z,20.00
2023-05-01T06:47:11.775Z,20.70
2023-05-01T06:49:15.146Z,20.80
2023-05-01T06:51:18.714Z,20.60
2023-05-01T06:53:22.029Z,20.40
2023-05-01T06:55:25.716Z,20.70
2023-05-01T06:57:29.048Z,21.00
2023-05-01T06:59:32.349Z,21.10
2023-05-01T07:01:36.053Z,21.30
2023-05-01T07:03:40.917Z,21.20
2023-05-01T07:05:44.373Z,20.70
2023-05-01T07:07:58.030Z,21.00
2023-05-01T07:10:04.832Z,21.90
2023-05-01T07:12:08.898Z,23.30
2023-05-01T07:14:12.361Z,23.70
2023-05-01T07:16:16.158Z,23.70
2023-05-01T07:18:19.563Z,24.30
2023-05-01T07:20:24.303Z,24.90
2023-05-01T07:22:29.034Z,24.20
2023-05-01T07:24:32.298Z,24.20
2023-05-01T07:26:35.818Z,24.30
2023-05-01T07:28:39.194Z,24.60
2023-05-01T07:30:42.592Z,24.90
2023-05-01T07:32:46.205Z,25.70
2023-05-01T07:34:49.971Z,26.10
2023-05-01T07:36:55.109Z,27.10
2023-05-01T07:38:58.966Z,28.10
2023-05-01T07:41:02.333Z,27.50
2023-05-01T07:43:07.427Z,26.70
2023-05-01T07:45:11.538Z,27.90
2023-05-01T07:47:14.870Z,28.50
2023-05-01T07:49:18.415Z,26.90
2023-05-01T07:51:21.891Z,26.20
2023-05-01T07:53:26.810Z,26.20
2023-05-01T07:55:30.404Z,25.40
2023-05-01T07:57:34.236Z,25.00
2023-05-01T07:59:37.856Z,24.80
2023-05-01T08:01:41.356Z,24.00
2023-05-01T08:03:44.944Z,24.30
2023-05-01T08:05:48.392Z,23.90
2023-05-01T08:07:51.923Z,23.40
2023-05-01T08:09:59.794Z,21.60
2023-05-01T08:12:04.475Z,22.40
2023-05-01T08:14:08.224Z,22.50
2023-05-01T08:16:11.830Z,23.10
2023-05-01T08:18:20.609Z,23.30
2023-05-01T08:20:24.400Z,23.70
2023-05-01T08:22:28.001Z,25.20
2023-05-01T08:24:31.771Z,25.70
2023-05-01T08:26:36.795Z,25.30
2023-05-01T08:28:40.109Z,25.30
2023-05-01T08:30:43.987Z,26.50
2023-05-01T08:32:47.832Z,25.90
2023-05-01T08:34:51.600Z,28.00
2023-05-01T08:36:55.024Z,28.80
2023-05-01T08:38:58.708Z,28.10
2023-05-01T08:41:04.647Z,28.40
2023-05-01T08:43:13.284Z,29.10
2023-05-01T08:45:23.916Z,29.00
2023-05-01T08:47:30.667Z,30.00
2023-05-01T08:49:36.239Z,30.70
2023-05-01T08:51:40.131Z,30.50
2023-05-01T08:53:45.094Z,29.60
2023-05-01T08:55:50.705Z,30.30
2023-05-01T08:57:54.818Z,29.80
2023-05-01T09:00:01.709Z,30.70
2023-05-01T09:02:08.865Z,31.10
2023-05-01T09:04:13.508Z,32.00
2023-05-01T09:06:17.460Z,32.40
2023-05-01T09:08:20.972Z,31.90
2023-05-01T09:10:25.926Z,30.70
2023-05-01T09:12:29.696Z,28.60
2023-05-01T09:14:33.558Z,27.30
2023-05-01T09:16:41.013Z,26.80
2023-05-01T09:18:44.495Z,25.80
2023-05-01T09:20:48.618Z,26.00
2023-05-01T09:22:52.306Z,25.80
2023-05-01T09:24:56.604Z,25.60
2023-05-01T09:27:00.114Z,25.90
2023-05-01T09:29:03.932Z,25.40
2023-05-01T09:31:22.904Z,25.70
2023-05-01T09:33:27.915Z,25.70
2023-05-01T09:35:32.920Z,25.40
2023-05-01T09:37:36.763Z,24.00
2023-05-01T09:39:40.289Z,24.20
2023-05-01T09:41:52.836Z,23.50
2023-05-01T09:43:58.194Z,23.40
2023-05-01T09:46:03.909Z,23.80
2023-05-01T09:48:12.273Z,24.20
2023-05-01T09:50:31.819Z,24.90
2023-05-01T09:52:35.451Z,25.30
2023-05-01T09:54:39.119Z,25.50
2023-05-01T09:56:50.000Z,25.60
2023-05-01T09:58:59.654Z,25.70
2023-05-01T10:01:04.488Z,25.30
2023-05-01T10:03:17.147Z,25.70
2023-05-01T10:05:23.100Z,25.70
2023-05-01T10:07:26.832Z,25.80
2023-05-01T10:09:31.225Z,26.00
2023-05-01T10:11:53.589Z,26.70
2023-05-01T10:14:10.624Z,26.10
2023-05-01T10:16:31.303Z,26.10
2023-05-01T10:18:36.476Z,26.50
2023-05-01T10:20:43.567Z,27.60
2023-05-01T10:22:48.154Z,27.00
2023-05-01T10:24:52.266Z,26.90
2023-05-01T10:27:03.058Z,26.50
2023-05-01T10:29:06.920Z,25.80
2023-05-01T10:31:15.777Z,25.60
2023-05-01T10:33:22.744Z,25.00
2023-05-01T10:35:32.220Z,24.40
2023-05-01T10:37:42.034Z,23.30
2023-05-01T10:39:47.291Z,22.20
2023-05-01T10:42:09.627Z,22.30
2023-05-01T10:44:23.270Z,21.80
2023-05-01T10:46:30.957Z,22.00
2023-05-01T10:48:58.846Z,23.00
2023-05-01T10:51:14.168Z,23.40
2023-05-01T10:53:21.817Z,23.70
2023-05-01T10:55:34.773Z,24.20
2023-05-01T10:57:44.961Z,24.40
2023-05-01T11:00:13.026Z,23.60
2023-05-01T11:02:23.691Z,23.70
2023-05-01T11:04:54.235Z,23.10
2023-05-01T11:07:17.975Z,23.20
2023-05-01T11:09:42.908Z,22.90
2023-05-01T11:11:50.540Z,22.90
2023-05-01T11:14:00.969Z,22.50
2023-05-01T11:16:42.168Z,22.70
2023-05-01T11:18:49.124Z,22.50
2023-05-01T11:20:52.609Z,22.90
2023-05-01T11:22:58.628Z,23.20
2023-05-01T11:25:22.315Z,23.40
2023-05-01T11:27:26.791Z,24.80
2023-05-01T11:29:34.113Z,25.20
2023-05-01T11:31:37.918Z,26.10
2023-05-01T11:33:41.655Z,26.80
2023-05-01T11:35:46.638Z,27.20
2023-05-01T11:37:54.954Z,27.10
2023-05-01T11:40:00.369Z,27.90
2023-05-01T11:42:11.451Z,28.60
2023-05-01T11:44:17.915Z,27.80
2023-05-01T11:46:27.739Z,27.60
2023-05-01T11:48:32.795Z,27.10
2023-05-01T11:50:37.687Z,26.50
2023-05-01T11:52:45.791Z,25.90
2023-05-01T11:54:51.168Z,25.80
2023-05-01T11:57:00.324Z,25.40
2023-05-01T11:59:22.134Z,25.10
2023-05-01T12:01:36.114Z,23.80
2023-05-01T12:03:43.938Z,23.70
2023-05-01T12:05:47.486Z,23.60
2023-05-01T12:07:53.066Z,22.90
2023-05-01T12:09:56.698Z,23.10
2023-05-01T12:12:03.671Z,23.00
2023-05-01T12:14:20.961Z,22.90
2023-05-01T12:16:25.429Z,23.30
2023-05-01T12:18:30.485Z,23.30
2023-05-01T12:20:41.815Z,23.10
2023-05-01T12:22:51.845Z,23.00
2023-05-01T12:24:56.079Z,22.90
2023-05-01T12:27:03.653Z,22.60
2023-05-01T12:29:09.108Z,21.90
2023-05-01T12:31:16.757Z,21.90
2023-05-01T12:33:23.456Z,21.50
2023-05-01T12:35:33.239Z,21.90
2023-05-01T12:37:36.803Z,21.70
2023-05-01T12:39:42.449Z,21.50
2023-05-01T12:41:47.342Z,21.30
2023-05-01T12:43:51.181Z,21.70
2023-05-01T12:45:56.695Z,21.50
2023-05-01T12:48:10.980Z,21.80
2023-05-01T12:50:14.793Z,21.70
2023-05-01T12:52:27.591Z,22.10
2023-05-01T12:54:32.423Z,21.90
2023-05-01T12:56:35.805Z,21.90
2023-05-01T12:58:39.705Z,21.80
2023-05-01T13:00:49.953Z,22.00
2023-05-01T13:02:53.512Z,22.10
2023-05-01T13:05:07.889Z,21.90
2023-05-01T13:07:15.049Z,22.00
2023-05-01T13:09:19.479Z,21.80
2023-05-01T13:11:22.786Z,21.90
2023-05-01T13:13:31.793Z,22.00
2023-05-01T13:15:37.670Z,22.50
2023-05-01T13:17:41.431Z,22.00
2023-05-01T13:19:44.798Z,21.90
2023-05-01T13:21:52.328Z,21.70
2023-05-01T13:23:57.519Z,21.80
2023-05-01T13:26:01.186Z,22.00
2023-05-01T13:28:05.743Z,21.60
2023-05-01T13:30:11.558Z,22.00
2023-05-01T13:32:14.959Z,21.80
2023-05-01T13:34:25.094Z,21.90
2023-05-01T13:36:34.834Z,21.50
2023-05-01T13:38:45.944Z,21.00
2023-05-01T13:40:49.492Z,21.40
2023-05-01T13:42:54.192Z,21.70
2023-05-01T13:44:59.396Z,21.60
2023-05-01T13:47:04.282Z,21.40
2023-05-01T13:49:08.867Z,21.60
2023-05-01T13:51:15.233Z,21.10
2023-05-01T13:53:20.592Z,20.90
2023-05-01T13:55:26.536Z,20.80
2023-05-01T13:57:35.499Z,21.00
2023-05-01T13:59:44.850Z,21.10
2023-05-01T14:01:48.430Z,21.40
2023-05-01T14:03:57.241Z,21.80
2023-05-01T14:06:02.717Z,22.20
2023-05-01T14:08:07.128Z,21.80
2023-05-01T14:10:12.079Z,21.60
2023-05-01T14:12:28.012Z,21.60
2023-05-01T14:14:50.275Z,20.80
2023-05-01T14:16:54.184Z,21.00
2023-05-01T14:18:58.497Z,21.00
2023-05-01T14:21:01.813Z,20.80
2023-05-01T14:23:06.894Z,20.70
2023-05-01T14:25:18.845Z,20.80
2023-05-01T14:27:24.028Z,20.90
2023-05-01T14:29:34.543Z,21.00
2023-05-01T14:31:43.444Z,20.80
2023-05-01T14:33:49.082Z,20.60
2023-05-01T14:36:02.817Z,20.70
2023-05-01T14:38:11.408Z,21.00
2023-05-01T14:40:15.234Z,21.00
2023-05-01T14:42:18.738Z,20.80
2023-05-01T14:44:29.189Z,20.80
2023-05-01T14:46:34.360Z,20.50
2023-05-01T14:48:38.208Z,20.70
2023-05-01T14:50:41.703Z,20.70
2023-05-01T14:52:45.036Z,20.50
2023-05-01T14:54:50.149Z,20.70
2023-05-01T14:56:55.323Z,20.30
2023-05-01T14:59:01.326Z,20.20
2023-05-01T15:01:06.631Z,20.60
2023-05-01T15:03:10.471Z,20.20
2023-05-01T15:05:14.336Z,20.30
2023-05-01T15:07:17.988Z,20.60
2023-05-01T15:09:21.639Z,20.50
2023-05-01T15:11:27.407Z,20.50
2023-05-01T15:13:43.904Z,20.30
2023-05-01T15:15:48.751Z,20.00
2023-05-01T15:17:55.025Z,19.40
2023-05-01T15:19:58.439Z,19.10
2023-05-01T15:22:05.970Z,19.00
2023-05-01T15:24:10.547Z,19.30
2023-05-01T15:26:14.339Z,19.60
2023-05-01T15:28:18.563Z,19.60
2023-05-01T15:30:23.548Z,19.70
2023-05-01T15:32:27.130Z,19.60
2023-05-01T15:34:34.952Z,19.80
2023-05-01T15:36:41.697Z,19.80
2023-05-01T15:38:48.826Z,19.90
2023-05-01T15:40:52.575Z,20.10
2023-05-01T15:42:56.120Z,20.00
2023-05-01T15:45:08.200Z,19.90
2023-05-01T15:47:11.993Z,20.10
2023-05-01T15:49:15.566Z,20.00
2023-05-01T15:51:21.012Z,20.20
2023-05-01T15:53:25.225Z,19.70
2023-05-01T15:55:30.734Z,19.60
2023-05-01T15:57:35.408Z,19.70
2023-05-01T15:59:44.807Z,19.80
2023-05-01T16:01:50.674Z,19.80
2023-05-01T16:03:56.658Z,20.00
2023-05-01T16:06:00.449Z,20.00
2023-05-01T16:08:08.021Z,20.00
2023-05-01T16:10:12.452Z,20.00
2023-05-01T16:12:16.023Z,19.90
2023-05-01T16:14:19.679Z,19.80
2023-05-01T16:16:30.622Z,19.70
2023-05-01T16:18:36.199Z,19.80
2023-05-01T16:20:44.121Z,19.70
2023-05-01T16:23:04.245Z,19.80
2023-05-01T16:25:12.869Z,19.70
2023-05-01T16:27:19.250Z,19.80
2023-05-01T16:29:23.791Z,19.80
2023-05-01T16:31:33.994Z,19.60
2023-05-01T16:33:37.458Z,19.50
2023-05-01T16:35:42.446Z,19.30
2023-05-01T16:38:00.229Z,19.40
2023-05-01T16:40:04.661Z,19.60
2023-05-01T16:42:13.720Z,19.50
2023-05-01T16:44:17.981Z,19.50
2023-05-01T16:46:21.920Z,19.30
2023-05-01T16:48:28.892Z,19.40
2023-05-01T16:50:34.073Z,19.30
2023-05-01T16:52:39.239Z,19.20
2023-05-01T16:54:43.085Z,19.20
2023-05-01T16:56:46.711Z,19.10
2023-05-01T16:58:51.738Z,19.10
2023-05-01T17:00:55.955Z,19.00
2023-05-01T17:03:00.132Z,19.00
2023-05-01T17:05:04.177Z,18.90
2023-05-01T17:07:09.052Z,18.90
2023-05-01T17:09:12.713Z,18.80
2023-05-01T17:11:16.258Z,18.70
2023-05-01T17:13:22.252Z,18.70
2023-05-01T17:15:27.592Z,18.60
2023-05-01T17:17:32.705Z,18.50
2023-05-01T17:19:40.959Z,18.50
2023-05-01T17:21:46.604Z,18.30
2023-05-01T17:23:50.622Z,18.20
2023-05-01T17:25:54.816Z,18.00
2023-05-01T17:27:59.340Z,17.90
2023-05-01T17:30:03.610Z,17.80
2023-05-01T17:32:09.043Z,17.60
2023-05-01T17:34:13.231Z,17.50
2023-05-01T17:36:18.429Z,17.30
2023-05-01T17:38:24.448Z,17.20
2023-05-01T17:40:36.510Z,17.00
2023-05-01T17:42:40.332Z,16.90
2023-05-01T17:44:46.122Z,16.80
2023-05-01T17:46:49.609Z,16.60
2023-05-01T17:48:54.837Z,16.60
2023-05-01T17:50:58.370Z,16.60
2023-05-01T17:53:01.837Z,16.40
2023-05-01T17:55:06.274Z,16.30
2023-05-01T17:57:09.992Z,16.20
2023-05-01T17:59:13.941Z,16.10
2023-05-01T18:01:17.464Z,15.90
2023-05-01T18:03:22.679Z,15.90
2023-05-01T18:05:29.232Z,15.80
2023-05-01T18:07:32.928Z,15.60
2023-05-01T18:09:40.162Z,15.50
2023-05-01T18:11:44.063Z,15.40
2023-05-01T18:13:48.281Z,15.40
2023-05-01T18:15:53.276Z,15.20
2023-05-01T18:17:56.859Z,15.20
2023-05-01T18:20:00.722Z,15.20
2023-05-01T18:22:06.214Z,15.20
2023-05-01T18:24:11.842Z,15.00
2023-05-01T18:26:16.706Z,14.80
2023-05-01T18:28:20.308Z,14.80
2023-05-01T18:30:24.090Z,14.80
2023-05-01T18:32:43.372Z,14.80
2023-05-01T18:34:53.627Z,14.90
2023-05-01T18:36:57.099Z,14.80
2023-05-01T18:39:02.731Z,14.90
2023-05-01T18:41:06.343Z,14.90
2023-05-01T18:43:10.469Z,14.90
2023-05-01T18:45:14.300Z,15.00
2023-05-01T18:47:17.721Z,15.00
2023-05-01T18:49:23.999Z,15.00
2023-05-01T18:51:27.422Z,15.00
2023-05-01T18:53:30.994Z,15.00
2023-05-01T18:55:39.201Z,15.00
2023-05-01T18:57:44.185Z,15.00
2023-05-01T18:59:47.956Z,15.10
2023-05-01T19:01:51.620Z,14.90
2023-05-01T19:03:59.165Z,14.90
2023-05-01T19:06:02.774Z,14.90
2023-05-01T19:08:07.372Z,14.90
2023-05-01T19:10:11.658Z,15.00
2023-05-01T19:12:17.300Z,15.00
2023-05-01T19:14:23.358Z,15.00
2023-05-01T19:16:28.749Z,15.00
2023-05-01T19:18:33.405Z,14.90
2023-05-01T19:20:36.906Z,15.00
2023-05-01T19:34:01.002Z,15.00
2023-05-01T19:36:04.426Z,15.50
2023-05-01T19:38:08.070Z,15.30
2023-05-01T19:40:12.668Z,15.20
2023-05-01T19:42:16.381Z,15.20
2023-05-01T19:44:19.938Z,15.20
2023-05-01T19:46:23.691Z,15.10
2023-05-01T19:48:27.220Z,15.10
2023-05-01T19:50:35.797Z,14.90
2023-05-01T19:52:39.125Z,14.90
2023-05-01T19:54:43.745Z,14.90
2023-05-01T19:56:49.977Z,14.80
2023-05-01T19:58:54.872Z,14.70
2023-05-01T20:01:02.320Z,14.80
2023-05-01T20:03:06.316Z,14.80
2023-05-01T20:05:10.896Z,14.80
2023-05-01T20:07:17.264Z,14.80
2023-05-01T20:09:21.926Z,14.70
2023-05-01T20:11:25.444Z,14.70
2023-05-01T20:13:28.877Z,14.70
2023-05-01T20:15:32.250Z,14.80
2023-05-01T20:17:36.203Z,14.70
2023-05-01T20:19:40.045Z,14.70
2023-05-01T20:21:44.025Z,14.70
2023-05-01T20:23:49.259Z,14.70
2023-05-01T20:25:54.377Z,14.60
2023-05-01T20:27:57.722Z,14.60
2023-05-01T20:30:01.929Z,14.60
2023-05-01T20:32:06.154Z,14.50
2023-05-01T20:34:10.094Z,14.50
2023-05-01T20:36:14.162Z,14.50
2023-05-01T20:38:17.537Z,14.40
2023-05-01T20:40:22.385Z,14.40
2023-05-01T20:42:27.882Z,14.40
2023-05-01T20:44:31.828Z,14.50
2023-05-01T20:46:35.349Z,14.50
2023-05-01T20:48:38.793Z,14.50
2023-05-01T20:50:43.956Z,14.50
2023-05-01T20:52:47.419Z,14.50
2023-05-01T20:54:50.841Z,14.40
2023-05-01T20:56:55.688Z,14.40
2023-05-01T20:59:00.280Z,14.40
2023-05-01T21:01:05.299Z,14.50
2023-05-01T21:03:09.432Z,14.40
2023-05-01T21:05:13.336Z,14.30
2023-05-01T21:07:16.875Z,14.40
2023-05-01T21:09:20.420Z,14.30
2023-05-01T21:11:23.925Z,14.40
2023-05-01T21:13:30.029Z,14.50
2023-05-01T21:15:34.100Z,14.40
2023-05-01T21:17:38.578Z,14.40
2023-05-01T21:19:44.958Z,14.40
2023-05-01T21:21:48.397Z,14.40
2023-05-01T21:23:52.654Z,14.40
2023-05-01T21:25:56.161Z,14.40
2023-05-01T21:28:02.221Z,14.50
2023-05-01T21:30:08.423Z,14.50
2023-05-01T21:32:12.118Z,14.40
2023-05-01T21:34:19.689Z,14.50
2023-05-01T21:36:23.409Z,14.50
2023-05-01T21:38:26.838Z,14.50
2023-05-01T21:40:30.128Z,14.50
2023-05-01T21:42:40.442Z,14.50
2023-05-01T21:44:44.498Z,14.50
2023-05-01T21:46:49.443Z,14.40
2023-05-01T21:48:53.283Z,14.40
2023-05-01T21:50:56.817Z,14.40
2023-05-01T21:53:01.349Z,14.50
2023-05-01T21:55:06.218Z,14.50
2023-05-01T21:57:09.829Z,14.40
2023-05-01T21:59:13.580Z,14.50
2023-05-01T22:01:18.190Z,14.50
2023-05-01T22:03:24.969Z,14.50
2023-05-01T22:05:31.330Z,14.50
2023-05-01T22:07:35.054Z,14.50
2023-05-01T22:09:38.444Z,14.20
2023-05-01T22:11:42.062Z,14.30
2023-05-01T22:13:45.522Z,14.40
2023-05-01T22:15:49.645Z,14.10
2023-05-01T22:17:54.147Z,14.10
2023-05-01T22:19:59.451Z,14.10
2023-05-01T22:22:03.324Z,14.10
2023-05-01T22:24:07.434Z,13.90
2023-05-01T22:26:10.998Z,14.00
2023-05-01T22:28:17.251Z,14.00
2023-05-01T22:30:21.535Z,14.00
2023-05-01T22:32:24.985Z,14.10
2023-05-01T22:34:28.544Z,14.10
2023-05-01T22:36:33.698Z,14.10
2023-05-01T22:38:37.169Z,14.00
2023-05-01T22:40:40.513Z,14.00
2023-05-01T22:42:44.212Z,14.00
2023-05-01T22:44:47.605Z,13.90
2023-05-01T22:46:51.757Z,13.90
2023-05-01T22:48:55.194Z,14.00
2023-05-01T22:50:58.730Z,14.10
2023-05-01T22:53:03.943Z,14.10
2023-05-01T22:55:08.252Z,14.10
2023-05-01T22:57:11.664Z,14.10
2023-05-01T22:59:15.141Z,14.10
2023-05-01T23:01:18.795Z,14.10
2023-05-01T23:03:22.504Z,14.10
2023-05-01T23:05:25.838Z,13.90
2023-05-01T23:07:29.183Z,13.90
2023-05-01T23:09:34.539Z,13.90
2023-05-01T23:11:38.082Z,13.90
2023-05-01T23:13:44.714Z,13.90
2023-05-01T23:15:50.102Z,13.80
2023-05-01T23:17:53.976Z,13.80
2023-05-01T23:19:58.732Z,13.80
2023-05-01T23:22:09.820Z,13.80
2023-05-01T23:24:14.371Z,13.80
2023-05-01T23:26:25.741Z,13.70
2023-05-01T23:28:30.574Z,13.70
2023-05-01T23:30:34.173Z,13.70
2023-05-01T23:32:37.788Z,13.70
2023-05-01T23:34:43.404Z,13.60
2023-05-01T23:36:48.448Z,13.40
2023-05-01T23:38:51.929Z,13.50
2023-05-01T23:40:55.316Z,13.50
2023-05-01T23:43:00.153Z,13.40
2023-05-01T23:45:03.943Z,13.40
2023-05-01T23:47:07.839Z,13.40
2023-05-01T23:49:11.637Z,13.40
2023-05-01T23:51:15.144Z,13.50
2023-05-01T23:53:18.679Z,13.50
2023-05-01T23:55:22.169Z,13.40
2023-05-01T23:57:25.754Z,13.40
2023-05-01T23:59:30.865Z,13.40
